sensor_id;sensor_type;location;lat;lon;timestamp;P1;durP1;ratioP1;P2;durP2;ratioP2
38037;SDS011;23843;51.320;12.340;2023-01-31T05:30:37;7.43;;;1.93;;
38037;SDS011;23843;51.320;12.340;2023-01-31T05:33:02;6.27;;;1.30;;
38037;SDS011;23843;51.320;12.340;2023-01-31T05:35:28;3.77;;;1.00;;
38037;SDS011;23843;51.320;12.340;2023-01-31T05:37:53;6.53;;;1.37;;
38037;SDS011;23843;51.320;12.340;2023-01-31T05:40:19;5.33;;;1.40;;
38037;SDS011;23843;51.320;12.340;2023-01-31T05:42:46;6.00;;;1.50;;
38037;SDS011;23843;51.320;12.340;2023-01-31T05:45:23;6.73;;;1.90;;
38037;SDS011;23843;51.320;12.340;2023-01-31T05:47:51;7.20;;;1.97;;
38037;SDS011;23843;51.320;12.340;2023-01-31T05:50:20;7.80;;;1.63;;
38037;SDS011;23843;51.320;12.340;2023-01-31T05:52:53;6.63;;;2.03;;
38037;SDS011;23843;51.320;12.340;2023-01-31T05:55:40;6.03;;;1.63;;
38037;SDS011;23843;51.320;12.340;2023-01-31T05:58:07;7.60;;;1.40;;
38037;SDS011;23843;51.320;12.340;2023-01-31T06:03:40;4.57;;;1.20;;
38037;SDS011;23843;51.320;12.340;2023-01-31T06:06:07;5.03;;;1.50;;
38037;SDS011;23843;51.320;12.340;2023-01-31T06:08:56;7.17;;;1.63;;
38037;SDS011;23843;51.320;12.340;2023-01-31T06:11:27;9.10;;;1.63;;
38037;SDS011;23843;51.320;12.340;2023-01-31T06:13:58;3.37;;;1.10;;
38037;SDS011;23843;51.320;12.340;2023-01-31T06:19:17;8.67;;;1.80;;
38037;SDS011;23843;51.320;12.340;2023-01-31T06:22:04;6.03;;;1.60;;
38037;SDS011;23843;51.320;12.340;2023-01-31T06:24:29;5.07;;;1.53;;
38037;SDS011;23843;51.320;12.340;2023-01-31T06:27:03;7.07;;;1.60;;
38037;SDS011;23843;51.320;12.340;2023-01-31T06:29:28;4.77;;;1.30;;
38037;SDS011;23843;51.320;12.340;2023-01-31T06:31:56;6.03;;;1.80;;
38037;SDS011;23843;51.320;12.340;2023-01-31T06:34:23;7.43;;;1.70;;
38037;SDS011;23843;51.320;12.340;2023-01-31T06:36:50;6.97;;;1.33;;
38037;SDS011;23843;51.320;12.340;2023-01-31T06:39:22;9.97;;;1.90;;
38037;SDS011;23843;51.320;12.340;2023-01-31T06:44:42;7.60;;;2.20;;
38037;SDS011;23843;51.320;12.340;2023-01-31T06:50:06;7.57;;;2.73;;
38037;SDS011;23843;51.320;12.340;2023-01-31T06:52:33;7.30;;;3.10;;
38037;SDS011;23843;51.320;12.340;2023-01-31T06:55:02;6.77;;;2.10;;
38037;SDS011;23843;51.320;12.340;2023-01-31T06:57:27;7.57;;;2.40;;
38037;SDS011;23843;51.320;12.340;2023-01-31T06:59:53;4.23;;;1.60;;
38037;SDS011;23843;51.320;12.340;2023-01-31T07:02:18;4.80;;;1.90;;
38037;SDS011;23843;51.320;12.340;2023-01-31T07:04:44;9.07;;;3.03;;
38037;SDS011;23843;51.320;12.340;2023-01-31T07:07:11;7.90;;;3.17;;
38037;SDS011;23843;51.320;12.340;2023-01-31T07:09:36;7.60;;;2.90;;
38037;SDS011;23843;51.320;12.340;2023-01-31T07:12:02;12.57;;;2.40;;
38037;SDS011;23843;51.320;12.340;2023-01-31T07:14:27;6.50;;;1.60;;
38037;SDS011;23843;51.320;12.340;2023-01-31T07:16:53;7.53;;;1.70;;
38037;SDS011;23843;51.320;12.340;2023-01-31T07:19:18;8.77;;;1.83;;
38037;SDS011;23843;51.320;12.340;2023-01-31T07:21:44;6.90;;;1.50;;
38037;SDS011;23843;51.320;12.340;2023-01-31T07:24:11;4.47;;;1.50;;
38037;SDS011;23843;51.320;12.340;2023-01-31T07:26:36;7.23;;;1.83;;
38037;SDS011;23843;51.320;12.340;2023-01-31T07:29:02;6.47;;;1.67;;
38037;SDS011;23843;51.320;12.340;2023-01-31T07:31:27;9.80;;;1.47;;
38037;SDS011;23843;51.320;12.340;2023-01-31T07:33:53;3.90;;;1.40;;
38037;SDS011;23843;51.320;12.340;2023-01-31T07:36:18;7.67;;;1.90;;
38037;SDS011;23843;51.320;12.340;2023-01-31T07:38:44;7.13;;;1.73;;
38037;SDS011;23843;51.320;12.340;2023-01-31T07:41:10;9.00;;;2.60;;
38037;SDS011;23843;51.320;12.340;2023-01-31T07:43:36;6.87;;;1.87;;
38037;SDS011;23843;51.320;12.340;2023-01-31T07:46:01;3.70;;;1.17;;
38037;SDS011;23843;51.320;12.340;2023-01-31T07:48:29;3.60;;;1.40;;
38037;SDS011;23843;51.320;12.340;2023-01-31T07:50:57;7.30;;;2.40;;
38037;SDS011;23843;51.320;12.340;2023-01-31T07:53:25;9.10;;;2.20;;
38037;SDS011;23843;51.320;12.340;2023-01-31T07:55:52;7.27;;;2.43;;
38037;SDS011;23843;51.320;12.340;2023-01-31T07:58:19;9.93;;;1.90;;
38037;SDS011;23843;51.320;12.340;2023-01-31T08:00:44;5.70;;;2.03;;
38037;SDS011;23843;51.320;12.340;2023-01-31T08:03:16;8.63;;;1.77;;
38037;SDS011;23843;51.320;12.340;2023-01-31T08:05:48;7.00;;;1.47;;
38037;SDS011;23843;51.320;12.340;2023-01-31T08:08:14;5.23;;;1.63;;
38037;SDS011;23843;51.320;12.340;2023-01-31T08:10:39;3.27;;;1.17;;
38037;SDS011;23843;51.320;12.340;2023-01-31T08:13:05;6.63;;;1.30;;
38037;SDS011;23843;51.320;12.340;2023-01-31T08:15:32;2.70;;;1.07;;
38037;SDS011;23843;51.320;12.340;2023-01-31T08:17:57;6.07;;;1.43;;
38037;SDS011;23843;51.320;12.340;2023-01-31T08:20:23;5.87;;;1.37;;
38037;SDS011;23843;51.320;12.340;2023-01-31T08:22:48;4.17;;;1.40;;
38037;SDS011;23843;51.320;12.340;2023-01-31T08:25:19;5.80;;;1.50;;
38037;SDS011;23843;51.320;12.340;2023-01-31T08:27:54;8.27;;;1.73;;
38037;SDS011;23843;51.320;12.340;2023-01-31T08:30:21;5.57;;;1.47;;
38037;SDS011;23843;51.320;12.340;2023-01-31T08:32:48;4.80;;;1.20;;
38037;SDS011;23843;51.320;12.340;2023-01-31T08:35:13;6.37;;;1.43;;
38037;SDS011;23843;51.320;12.340;2023-01-31T08:37:39;5.13;;;1.73;;
38037;SDS011;23843;51.320;12.340;2023-01-31T08:40:05;8.50;;;1.90;;
38037;SDS011;23843;51.320;12.340;2023-01-31T08:42:31;8.40;;;1.97;;
38037;SDS011;23843;51.320;12.340;2023-01-31T08:44:56;8.63;;;1.70;;
38037;SDS011;23843;51.320;12.340;2023-01-31T08:47:22;5.67;;;1.67;;
38037;SDS011;23843;51.320;12.340;2023-01-31T08:49:49;6.57;;;2.13;;
38037;SDS011;23843;51.320;12.340;2023-01-31T08:52:14;7.57;;;1.60;;
38037;SDS011;23843;51.320;12.340;2023-01-31T08:54:40;7.10;;;1.60;;
38037;SDS011;23843;51.320;12.340;2023-01-31T08:57:05;4.53;;;1.60;;
38037;SDS011;23843;51.320;12.340;2023-01-31T08:59:30;5.13;;;1.60;;
38037;SDS011;23843;51.320;12.340;2023-01-31T09:01:56;5.90;;;1.47;;
38037;SDS011;23843;51.320;12.340;2023-01-31T09:04:21;4.70;;;1.60;;
38037;SDS011;23843;51.320;12.340;2023-01-31T09:06:48;5.47;;;1.40;;
38037;SDS011;23843;51.320;12.340;2023-01-31T09:09:14;7.67;;;3.07;;
38037;SDS011;23843;51.320;12.340;2023-01-31T09:11:39;6.73;;;2.07;;
38037;SDS011;23843;51.320;12.340;2023-01-31T09:14:05;8.30;;;2.13;;
38037;SDS011;23843;51.320;12.340;2023-01-31T09:16:30;5.70;;;1.80;;
38037;SDS011;23843;51.320;12.340;2023-01-31T09:18:55;5.10;;;1.60;;
38037;SDS011;23843;51.320;12.340;2023-01-31T09:21:21;5.43;;;1.77;;
38037;SDS011;23843;51.320;12.340;2023-01-31T09:23:52;3.77;;;1.30;;
38037;SDS011;23843;51.320;12.340;2023-01-31T09:26:19;6.30;;;1.70;;
38037;SDS011;23843;51.320;12.340;2023-01-31T09:28:45;6.60;;;1.70;;
38037;SDS011;23843;51.320;12.340;2023-01-31T09:31:11;9.27;;;1.80;;
38037;SDS011;23843;51.320;12.340;2023-01-31T09:33:37;4.13;;;1.40;;
38037;SDS011;23843;51.320;12.340;2023-01-31T09:36:03;8.30;;;2.20;;
38037;SDS011;23843;51.320;12.340;2023-01-31T09:38:30;7.07;;;2.20;;
38037;SDS011;23843;51.320;12.340;2023-01-31T09:40:58;8.13;;;2.23;;
38037;SDS011;23843;51.320;12.340;2023-01-31T09:43:26;5.60;;;1.87;;
38037;SDS011;23843;51.320;12.340;2023-01-31T09:45:57;6.57;;;2.10;;
38037;SDS011;23843;51.320;12.340;2023-01-31T09:48:26;9.07;;;2.07;;
38037;SDS011;23843;51.320;12.340;2023-01-31T09:50:55;7.23;;;2.40;;
38037;SDS011;23843;51.320;12.340;2023-01-31T09:53:23;7.27;;;2.10;;
38037;SDS011;23843;51.320;12.340;2023-01-31T09:55:55;7.50;;;1.97;;
38037;SDS011;23843;51.320;12.340;2023-01-31T09:58:34;8.17;;;2.00;;
38037;SDS011;23843;51.320;12.340;2023-01-31T10:01:06;4.43;;;1.63;;
38037;SDS011;23843;51.320;12.340;2023-01-31T10:03:40;8.43;;;1.90;;
38037;SDS011;23843;51.320;12.340;2023-01-31T10:06:14;7.17;;;2.10;;
38037;SDS011;23843;51.320;12.340;2023-01-31T10:08:46;7.07;;;2.13;;
38037;SDS011;23843;51.320;12.340;2023-01-31T10:11:21;6.70;;;1.83;;
38037;SDS011;23843;51.320;12.340;2023-01-31T10:13:54;6.90;;;1.97;;
38037;SDS011;23843;51.320;12.340;2023-01-31T10:16:24;7.20;;;1.80;;
38037;SDS011;23843;51.320;12.340;2023-01-31T10:18:55;7.60;;;2.17;;
38037;SDS011;23843;51.320;12.340;2023-01-31T10:21:24;4.53;;;1.80;;
38037;SDS011;23843;51.320;12.340;2023-01-31T10:23:54;7.63;;;2.10;;
38037;SDS011;23843;51.320;12.340;2023-01-31T10:26:26;7.43;;;2.20;;
38037;SDS011;23843;51.320;12.340;2023-01-31T10:28:54;6.33;;;1.80;;
38037;SDS011;23843;51.320;12.340;2023-01-31T10:31:26;10.77;;;2.57;;
38037;SDS011;23843;51.320;12.340;2023-01-31T10:33:57;10.77;;;2.70;;
38037;SDS011;23843;51.320;12.340;2023-01-31T10:36:28;5.03;;;1.80;;
38037;SDS011;23843;51.320;12.340;2023-01-31T10:38:59;7.97;;;2.20;;
38037;SDS011;23843;51.320;12.340;2023-01-31T10:41:35;5.70;;;1.80;;
38037;SDS011;23843;51.320;12.340;2023-01-31T10:44:12;5.63;;;1.73;;
38037;SDS011;23843;51.320;12.340;2023-01-31T10:46:44;5.67;;;2.00;;
38037;SDS011;23843;51.320;12.340;2023-01-31T10:49:11;6.80;;;2.17;;
38037;SDS011;23843;51.320;12.340;2023-01-31T10:51:46;5.37;;;2.30;;
38037;SDS011;23843;51.320;12.340;2023-01-31T10:54:27;8.50;;;2.50;;
38037;SDS011;23843;51.320;12.340;2023-01-31T10:57:05;9.50;;;2.57;;
38037;SDS011;23843;51.320;12.340;2023-01-31T10:59:32;8.23;;;2.23;;
38037;SDS011;23843;51.320;12.340;2023-01-31T11:02:00;7.83;;;2.60;;
38037;SDS011;23843;51.320;12.340;2023-01-31T11:04:27;9.77;;;2.80;;
38037;SDS011;23843;51.320;12.340;2023-01-31T11:06:56;6.23;;;2.30;;
38037;SDS011;23843;51.320;12.340;2023-01-31T11:09:22;8.37;;;2.50;;
38037;SDS011;23843;51.320;12.340;2023-01-31T11:11:52;8.03;;;2.40;;
38037;SDS011;23843;51.320;12.340;2023-01-31T11:14:21;11.93;;;3.00;;
38037;SDS011;23843;51.320;12.340;2023-01-31T11:16:47;5.73;;;2.40;;
38037;SDS011;23843;51.320;12.340;2023-01-31T11:19:15;8.40;;;2.70;;
38037;SDS011;23843;51.320;12.340;2023-01-31T11:21:46;10.00;;;2.90;;
38037;SDS011;23843;51.320;12.340;2023-01-31T11:24:14;11.57;;;3.20;;
38037;SDS011;23843;51.320;12.340;2023-01-31T11:26:47;8.40;;;3.20;;
38037;SDS011;23843;51.320;12.340;2023-01-31T11:29:16;8.63;;;2.80;;
38037;SDS011;23843;51.320;12.340;2023-01-31T11:31:47;9.83;;;3.00;;
38037;SDS011;23843;51.320;12.340;2023-01-31T11:34:20;7.80;;;2.50;;
38037;SDS011;23843;51.320;12.340;2023-01-31T11:36:47;11.80;;;2.93;;
38037;SDS011;23843;51.320;12.340;2023-01-31T11:39:26;9.97;;;2.73;;
38037;SDS011;23843;51.320;12.340;2023-01-31T11:41:53;6.73;;;2.57;;
38037;SDS011;23843;51.320;12.340;2023-01-31T11:44:19;13.13;;;2.80;;
38037;SDS011;23843;51.320;12.340;2023-01-31T11:46:48;7.47;;;2.20;;
38037;SDS011;23843;51.320;12.340;2023-01-31T11:49:19;7.67;;;2.50;;
38037;SDS011;23843;51.320;12.340;2023-01-31T11:51:47;8.97;;;2.33;;
38037;SDS011;23843;51.320;12.340;2023-01-31T11:54:15;11.57;;;2.47;;
38037;SDS011;23843;51.320;12.340;2023-01-31T11:56:43;8.27;;;2.73;;
38037;SDS011;23843;51.320;12.340;2023-01-31T11:59:10;8.27;;;2.53;;
38037;SDS011;23843;51.320;12.340;2023-01-31T12:01:45;9.07;;;3.77;;
38037;SDS011;23843;51.320;12.340;2023-01-31T12:04:15;6.97;;;2.90;;
38037;SDS011;23843;51.320;12.340;2023-01-31T12:06:53;10.93;;;3.00;;
38037;SDS011;23843;51.320;12.340;2023-01-31T12:09:21;13.93;;;3.60;;
38037;SDS011;23843;51.320;12.340;2023-01-31T12:11:49;14.13;;;3.87;;
38037;SDS011;23843;51.320;12.340;2023-01-31T12:14:16;8.50;;;3.33;;
38037;SDS011;23843;51.320;12.340;2023-01-31T12:16:42;9.00;;;3.07;;
38037;SDS011;23843;51.320;12.340;2023-01-31T12:19:13;9.03;;;3.00;;
38037;SDS011;23843;51.320;12.340;2023-01-31T12:21:51;9.63;;;3.37;;
38037;SDS011;23843;51.320;12.340;2023-01-31T12:24:27;6.77;;;2.90;;
38037;SDS011;23843;51.320;12.340;2023-01-31T12:27:02;10.10;;;3.23;;
38037;SDS011;23843;51.320;12.340;2023-01-31T12:29:47;10.90;;;3.60;;
38037;SDS011;23843;51.320;12.340;2023-01-31T12:32:30;11.37;;;3.40;;
38037;SDS011;23843;51.320;12.340;2023-01-31T12:35:15;11.03;;;3.60;;
38037;SDS011;23843;51.320;12.340;2023-01-31T12:37:52;11.43;;;4.00;;
38037;SDS011;23843;51.320;12.340;2023-01-31T12:40:28;8.50;;;3.20;;
38037;SDS011;23843;51.320;12.340;2023-01-31T12:43:04;11.73;;;3.50;;
38037;SDS011;23843;51.320;12.340;2023-01-31T12:45:50;12.00;;;3.40;;
38037;SDS011;23843;51.320;12.340;2023-01-31T12:51:25;11.57;;;4.20;;
38037;SDS011;23843;51.320;12.340;2023-01-31T12:54:07;11.77;;;3.60;;
38037;SDS011;23843;51.320;12.340;2023-01-31T12:56:44;10.43;;;3.50;;
38037;SDS011;23843;51.320;12.340;2023-01-31T12:59:23;9.67;;;3.37;;
38037;SDS011;23843;51.320;12.340;2023-01-31T13:02:09;11.23;;;3.47;;
38037;SDS011;23843;51.320;12.340;2023-01-31T13:04:44;11.87;;;3.30;;
38037;SDS011;23843;51.320;12.340;2023-01-31T13:07:14;10.03;;;3.77;;
38037;SDS011;23843;51.320;12.340;2023-01-31T13:09:45;10.87;;;3.53;;
38037;SDS011;23843;51.320;12.340;2023-01-31T13:12:15;8.57;;;3.63;;
38037;SDS011;23843;51.320;12.340;2023-01-31T13:14:46;8.67;;;4.07;;
38037;SDS011;23843;51.320;12.340;2023-01-31T13:17:16;12.37;;;3.53;;
38037;SDS011;23843;51.320;12.340;2023-01-31T13:19:48;8.00;;;3.40;;
38037;SDS011;23843;51.320;12.340;2023-01-31T13:22:19;9.97;;;3.33;;
38037;SDS011;23843;51.320;12.340;2023-01-31T13:24:49;11.27;;;3.67;;
38037;SDS011;23843;51.320;12.340;2023-01-31T13:27:23;10.00;;;3.43;;
38037;SDS011;23843;51.320;12.340;2023-01-31T13:29:55;11.23;;;4.03;;
38037;SDS011;23843;51.320;12.340;2023-01-31T13:32:26;9.47;;;3.83;;
38037;SDS011;23843;51.320;12.340;2023-01-31T13:34:56;11.80;;;4.30;;
38037;SDS011;23843;51.320;12.340;2023-01-31T13:37:26;10.20;;;3.50;;
38037;SDS011;23843;51.320;12.340;2023-01-31T13:39:53;9.93;;;3.73;;
38037;SDS011;23843;51.320;12.340;2023-01-31T13:42:22;10.33;;;3.50;;
38037;SDS011;23843;51.320;12.340;2023-01-31T13:44:48;10.27;;;3.87;;
38037;SDS011;23843;51.320;12.340;2023-01-31T13:47:14;8.97;;;3.03;;
38037;SDS011;23843;51.320;12.340;2023-01-31T13:49:46;10.80;;;3.03;;
38037;SDS011;23843;51.320;12.340;2023-01-31T13:52:16;11.93;;;3.63;;
38037;SDS011;23843;51.320;12.340;2023-01-31T13:54:49;9.27;;;3.10;;
38037;SDS011;23843;51.320;12.340;2023-01-31T13:57:19;8.37;;;2.90;;
38037;SDS011;23843;51.320;12.340;2023-01-31T13:59:50;11.53;;;3.43;;
38037;SDS011;23843;51.320;12.340;2023-01-31T14:02:18;10.77;;;3.50;;
38037;SDS011;23843;51.320;12.340;2023-01-31T14:04:44;9.87;;;3.40;;
38037;SDS011;23843;51.320;12.340;2023-01-31T14:07:14;9.07;;;3.57;;
38037;SDS011;23843;51.320;12.340;2023-01-31T14:09:44;8.30;;;3.10;;
38037;SDS011;23843;51.320;12.340;2023-01-31T14:15:59;9.43;;;3.40;;
38037;SDS011;23843;51.320;12.340;2023-01-31T14:18:38;7.40;;;2.83;;
38037;SDS011;23843;51.320;12.340;2023-01-31T14:24:17;7.83;;;3.10;;
38037;SDS011;23843;51.320;12.340;2023-01-31T14:26:59;9.60;;;3.23;;
38037;SDS011;23843;51.320;12.340;2023-01-31T14:29:42;8.10;;;2.50;;
38037;SDS011;23843;51.320;12.340;2023-01-31T14:32:12;8.73;;;3.20;;
38037;SDS011;23843;51.320;12.340;2023-01-31T14:34:39;5.77;;;2.70;;
38037;SDS011;23843;51.320;12.340;2023-01-31T14:37:14;8.00;;;2.70;;
38037;SDS011;23843;51.320;12.340;2023-01-31T14:42:59;8.17;;;3.13;;
38037;SDS011;23843;51.320;12.340;2023-01-31T14:48:42;5.33;;;2.70;;
38037;SDS011;23843;51.320;12.340;2023-01-31T14:51:41;8.57;;;2.90;;
38037;SDS011;23843;51.320;12.340;2023-01-31T14:54:22;7.43;;;3.20;;
38037;SDS011;23843;51.320;12.340;2023-01-31T14:57:07;5.30;;;2.50;;
38037;SDS011;23843;51.320;12.340;2023-01-31T14:59:39;5.80;;;2.80;;
38037;SDS011;23843;51.320;12.340;2023-01-31T15:02:24;7.13;;;2.60;;
38037;SDS011;23843;51.320;12.340;2023-01-31T15:05:05;8.03;;;3.37;;
38037;SDS011;23843;51.320;12.340;2023-01-31T15:07:34;7.03;;;3.30;;
38037;SDS011;23843;51.320;12.340;2023-01-31T15:10:00;7.20;;;4.10;;
38037;SDS011;23843;51.320;12.340;2023-01-31T15:15:20;7.00;;;3.50;;
38037;SDS011;23843;51.320;12.340;2023-01-31T15:17:50;5.97;;;3.17;;
38037;SDS011;23843;51.320;12.340;2023-01-31T15:20:17;7.00;;;3.63;;
38037;SDS011;23843;51.320;12.340;2023-01-31T15:22:45;8.10;;;3.63;;
38037;SDS011;23843;51.320;12.340;2023-01-31T15:25:20;9.27;;;3.70;;
38037;SDS011;23843;51.320;12.340;2023-01-31T15:27:50;6.73;;;3.30;;
38037;SDS011;23843;51.320;12.340;2023-01-31T15:30:20;9.63;;;4.20;;
38037;SDS011;23843;51.320;12.340;2023-01-31T15:32:48;7.77;;;3.60;;
38037;SDS011;23843;51.320;12.340;2023-01-31T15:35:19;7.70;;;3.73;;
38037;SDS011;23843;51.320;12.340;2023-01-31T15:37:49;6.70;;;3.33;;
38037;SDS011;23843;51.320;12.340;2023-01-31T15:40:21;7.93;;;3.20;;
38037;SDS011;23843;51.320;12.340;2023-01-31T15:42:48;10.80;;;3.40;;
38037;SDS011;23843;51.320;12.340;2023-01-31T15:45:18;6.03;;;3.23;;
38037;SDS011;23843;51.320;12.340;2023-01-31T15:47:54;9.03;;;3.40;;
38037;SDS011;23843;51.320;12.340;2023-01-31T15:50:21;10.07;;;4.87;;
38037;SDS011;23843;51.320;12.340;2023-01-31T15:52:46;7.90;;;3.80;;
38037;SDS011;23843;51.320;12.340;2023-01-31T15:55:13;5.77;;;3.10;;
38037;SDS011;23843;51.320;12.340;2023-01-31T15:57:41;7.33;;;3.63;;
38037;SDS011;23843;51.320;12.340;2023-01-31T16:00:18;10.50;;;4.77;;
38037;SDS011;23843;51.320;12.340;2023-01-31T16:02:47;8.20;;;4.03;;
38037;SDS011;23843;51.320;12.340;2023-01-31T16:05:13;6.93;;;3.30;;
38037;SDS011;23843;51.320;12.340;2023-01-31T16:07:45;6.80;;;3.43;;
38037;SDS011;23843;51.320;12.340;2023-01-31T16:10:12;10.17;;;3.87;;
38037;SDS011;23843;51.320;12.340;2023-01-31T16:12:41;7.73;;;3.70;;
38037;SDS011;23843;51.320;12.340;2023-01-31T16:15:13;6.10;;;3.07;;
38037;SDS011;23843;51.320;12.340;2023-01-31T16:17:45;6.43;;;3.00;;
38037;SDS011;23843;51.320;12.340;2023-01-31T16:22:59;8.63;;;3.60;;
38037;SDS011;23843;51.320;12.340;2023-01-31T16:25:24;5.00;;;2.70;;
38037;SDS011;23843;51.320;12.340;2023-01-31T16:27:53;5.27;;;2.60;;
38037;SDS011;23843;51.320;12.340;2023-01-31T16:30:18;7.13;;;2.97;;
38037;SDS011;23843;51.320;12.340;2023-01-31T16:32:45;7.87;;;2.90;;
38037;SDS011;23843;51.320;12.340;2023-01-31T16:35:17;7.27;;;3.00;;
38037;SDS011;23843;51.320;12.340;2023-01-31T16:37:46;7.50;;;3.20;;
38037;SDS011;23843;51.320;12.340;2023-01-31T16:40:25;8.23;;;3.67;;
38037;SDS011;23843;51.320;12.340;2023-01-31T16:42:54;9.53;;;3.30;;
38037;SDS011;23843;51.320;12.340;2023-01-31T16:45:33;7.07;;;3.30;;
38037;SDS011;23843;51.320;12.340;2023-01-31T16:48:10;5.43;;;2.90;;
38037;SDS011;23843;51.320;12.340;2023-01-31T16:50:45;8.00;;;3.40;;
38037;SDS011;23843;51.320;12.340;2023-01-31T16:53:15;6.70;;;3.03;;
38037;SDS011;23843;51.320;12.340;2023-01-31T16:55:51;6.77;;;3.27;;
38037;SDS011;23843;51.320;12.340;2023-01-31T16:58:42;7.03;;;2.93;;
38037;SDS011;23843;51.320;12.340;2023-01-31T17:01:10;8.57;;;3.10;;
38037;SDS011;23843;51.320;12.340;2023-01-31T17:03:38;7.83;;;3.07;;
38037;SDS011;23843;51.320;12.340;2023-01-31T17:06:04;6.03;;;3.13;;
38037;SDS011;23843;51.320;12.340;2023-01-31T17:08:30;7.20;;;3.10;;
38037;SDS011;23843;51.320;12.340;2023-01-31T17:10:58;7.80;;;3.27;;
38037;SDS011;23843;51.320;12.340;2023-01-31T17:13:24;5.90;;;3.53;;
38037;SDS011;23843;51.320;12.340;2023-01-31T17:15:50;5.93;;;2.97;;
38037;SDS011;23843;51.320;12.340;2023-01-31T17:18:16;5.97;;;2.87;;
38037;SDS011;23843;51.320;12.340;2023-01-31T17:20:44;6.87;;;3.57;;
38037;SDS011;23843;51.320;12.340;2023-01-31T17:23:11;6.40;;;3.17;;
38037;SDS011;23843;51.320;12.340;2023-01-31T17:25:37;6.60;;;3.40;;
38037;SDS011;23843;51.320;12.340;2023-01-31T17:28:03;8.07;;;3.40;;
38037;SDS011;23843;51.320;12.340;2023-01-31T17:30:30;6.27;;;3.07;;
38037;SDS011;23843;51.320;12.340;2023-01-31T17:32:57;7.37;;;3.80;;
38037;SDS011;23843;51.320;12.340;2023-01-31T17:35:23;5.67;;;3.20;;
38037;SDS011;23843;51.320;12.340;2023-01-31T17:37:52;7.43;;;3.50;;
38037;SDS011;23843;51.320;12.340;2023-01-31T17:40:18;6.57;;;3.33;;
38037;SDS011;23843;51.320;12.340;2023-01-31T17:42:43;5.53;;;2.93;;
38037;SDS011;23843;51.320;12.340;2023-01-31T17:45:11;6.73;;;3.20;;
38037;SDS011;23843;51.320;12.340;2023-01-31T17:47:37;7.70;;;3.23;;
38037;SDS011;23843;51.320;12.340;2023-01-31T17:50:03;6.47;;;3.50;;
38037;SDS011;23843;51.320;12.340;2023-01-31T17:52:29;6.27;;;2.80;;
38037;SDS011;23843;51.320;12.340;2023-01-31T17:54:56;6.70;;;3.43;;
38037;SDS011;23843;51.320;12.340;2023-01-31T17:57:21;5.00;;;3.17;;
38037;SDS011;23843;51.320;12.340;2023-01-31T17:59:46;4.80;;;3.20;;
38037;SDS011;23843;51.320;12.340;2023-01-31T18:02:12;5.50;;;2.60;;
38037;SDS011;23843;51.320;12.340;2023-01-31T18:04:37;5.07;;;2.40;;
38037;SDS011;23843;51.320;12.340;2023-01-31T18:07:03;5.30;;;2.90;;
38037;SDS011;23843;51.320;12.340;2023-01-31T18:09:28;5.17;;;2.77;;
38037;SDS011;23843;51.320;12.340;2023-01-31T18:11:55;7.30;;;3.10;;
38037;SDS011;23843;51.320;12.340;2023-01-31T18:14:21;4.50;;;2.70;;
38037;SDS011;23843;51.320;12.340;2023-01-31T18:16:47;5.73;;;2.70;;
38037;SDS011;23843;51.320;12.340;2023-01-31T18:19:13;4.93;;;2.40;;
38037;SDS011;23843;51.320;12.340;2023-01-31T18:21:38;4.00;;;2.03;;
38037;SDS011;23843;51.320;12.340;2023-01-31T18:24:04;3.57;;;2.60;;
38037;SDS011;23843;51.320;12.340;2023-01-31T18:26:30;6.03;;;2.80;;
38037;SDS011;23843;51.320;12.340;2023-01-31T18:28:57;4.30;;;2.63;;
38037;SDS011;23843;51.320;12.340;2023-01-31T18:31:22;4.33;;;2.80;;
38037;SDS011;23843;51.320;12.340;2023-01-31T18:33:48;5.57;;;3.10;;
38037;SDS011;23843;51.320;12.340;2023-01-31T18:36:14;4.43;;;2.57;;
38037;SDS011;23843;51.320;12.340;2023-01-31T18:38:41;4.83;;;2.40;;
38037;SDS011;23843;51.320;12.340;2023-01-31T18:41:08;4.73;;;2.50;;
38037;SDS011;23843;51.320;12.340;2023-01-31T18:43:34;4.97;;;2.80;;
38037;SDS011;23843;51.320;12.340;2023-01-31T18:46:02;3.00;;;2.50;;
38037;SDS011;23843;51.320;12.340;2023-01-31T18:48:28;5.47;;;2.63;;
38037;SDS011;23843;51.320;12.340;2023-01-31T18:50:54;4.57;;;2.70;;
38037;SDS011;23843;51.320;12.340;2023-01-31T18:53:19;3.73;;;2.40;;
38037;SDS011;23843;51.320;12.340;2023-01-31T18:55:44;4.33;;;2.67;;
38037;SDS011;23843;51.320;12.340;2023-01-31T18:58:10;3.57;;;2.30;;
38037;SDS011;23843;51.320;12.340;2023-01-31T19:00:35;4.20;;;2.80;;
38037;SDS011;23843;51.320;12.340;2023-01-31T19:03:02;3.53;;;2.20;;
38037;SDS011;23843;51.320;12.340;2023-01-31T19:05:28;3.57;;;2.73;;
38037;SDS011;23843;51.320;12.340;2023-01-31T19:07:53;3.83;;;2.37;;
38037;SDS011;23843;51.320;12.340;2023-01-31T19:10:19;4.90;;;2.97;;
38037;SDS011;23843;51.320;12.340;2023-01-31T19:12:44;3.93;;;2.53;;
38037;SDS011;23843;51.320;12.340;2023-01-31T19:15:11;7.17;;;4.20;;
38037;SDS011;23843;51.320;12.340;2023-01-31T19:17:37;4.63;;;2.83;;
38037;SDS011;23843;51.320;12.340;2023-01-31T19:20:04;3.97;;;2.50;;
38037;SDS011;23843;51.320;12.340;2023-01-31T19:22:30;3.53;;;2.53;;
38037;SDS011;23843;51.320;12.340;2023-01-31T19:24:55;2.70;;;1.90;;
38037;SDS011;23843;51.320;12.340;2023-01-31T19:27:21;5.77;;;2.43;;
38037;SDS011;23843;51.320;12.340;2023-01-31T19:29:47;3.37;;;2.40;;
38037;SDS011;23843;51.320;12.340;2023-01-31T19:32:13;4.63;;;2.87;;
38037;SDS011;23843;51.320;12.340;2023-01-31T19:34:38;3.43;;;2.63;;
38037;SDS011;23843;51.320;12.340;2023-01-31T19:37:05;4.03;;;2.57;;
38037;SDS011;23843;51.320;12.340;2023-01-31T19:39:30;4.60;;;2.90;;
38037;SDS011;23843;51.320;12.340;2023-01-31T19:41:56;4.70;;;2.93;;
38037;SDS011;23843;51.320;12.340;2023-01-31T19:44:22;3.73;;;3.00;;
38037;SDS011;23843;51.320;12.340;2023-01-31T19:46:47;3.00;;;2.50;;
38037;SDS011;23843;51.320;12.340;2023-01-31T19:49:13;4.07;;;3.07;;
38037;SDS011;23843;51.320;12.340;2023-01-31T19:51:38;3.73;;;2.53;;
38037;SDS011;23843;51.320;12.340;2023-01-31T19:54:05;4.43;;;3.10;;
38037;SDS011;23843;51.320;12.340;2023-01-31T19:56:30;4.63;;;2.80;;
38037;SDS011;23843;51.320;12.340;2023-01-31T19:58:56;3.00;;;2.60;;
38037;SDS011;23843;51.320;12.340;2023-01-31T20:01:22;3.93;;;2.70;;
38037;SDS011;23843;51.320;12.340;2023-01-31T20:03:47;3.93;;;3.07;;
38037;SDS011;23843;51.320;12.340;2023-01-31T20:06:14;3.73;;;2.50;;
38037;SDS011;23843;51.320;12.340;2023-01-31T20:08:40;3.80;;;2.30;;
38037;SDS011;23843;51.320;12.340;2023-01-31T20:11:08;3.50;;;2.90;;
38037;SDS011;23843;51.320;12.340;2023-01-31T20:13:34;3.43;;;2.60;;
38037;SDS011;23843;51.320;12.340;2023-01-31T20:16:01;5.03;;;3.83;;
38037;SDS011;23843;51.320;12.340;2023-01-31T20:18:28;8.73;;;5.50;;
38037;SDS011;23843;51.320;12.340;2023-01-31T20:20:54;6.37;;;4.50;;
38037;SDS011;23843;51.320;12.340;2023-01-31T20:23:19;5.77;;;3.87;;
38037;SDS011;23843;51.320;12.340;2023-01-31T20:25:46;5.30;;;3.60;;
38037;SDS011;23843;51.320;12.340;2023-01-31T20:28:13;7.67;;;3.60;;
38037;SDS011;23843;51.320;12.340;2023-01-31T20:30:39;5.40;;;3.50;;
38037;SDS011;23843;51.320;12.340;2023-01-31T20:33:04;4.17;;;3.10;;
38037;SDS011;23843;51.320;12.340;2023-01-31T20:35:30;3.83;;;2.60;;
38037;SDS011;23843;51.320;12.340;2023-01-31T20:37:55;4.67;;;2.80;;
38037;SDS011;23843;51.320;12.340;2023-01-31T20:40:21;4.57;;;2.70;;
38037;SDS011;23843;51.320;12.340;2023-01-31T20:42:46;3.07;;;2.30;;
38037;SDS011;23843;51.320;12.340;2023-01-31T20:45:13;3.53;;;2.30;;
38037;SDS011;23843;51.320;12.340;2023-01-31T20:47:40;4.10;;;2.37;;